Ocean Yatzy — V7FG4 — position and weather

sailwx.info

Track history (hours):
 
Tides and Currents Weather Stations Pressure Air Temp Water Temp Dewpoint Dewpoint Depression Visibility Wind Speed Wind Dir Waves Ship Positions

Ocean Yatzy

Last reported at 2018-May-13 22:39 UTC. Time now 2018-May-24 11:31 UTC.
Position N 21°42' E 065°19'.
Warning: this ship's position is 10 days out of date.

Length 80 m; draft 21.5 m.

Type: Ship. MMSI: 538001932.

Date/timePositionNaut miles runAvg speedWind from/ knotsBaromVisibWave heightAir tempDewpointWater temp
2018-May-13 22:39N 21°42' E 065°19'3412.7
2018-May-13 19:59N 21°14' E 065°40'4812.4
2018-May-13 16:07N 20°35' E 066°09'512.3
2018-May-13 15:42N 20°31' E 066°13'312.2
2018-May-13 15:26N 20°29' E 066°15'612.3
2018-May-13 14:59N 20°24' E 066°19'612.3
2018-May-13 14:30N 20°19' E 066°22'612.4
2018-May-13 14:00N 20°14' E 066°26'1512.8
2018-May-13 12:50N 20°01' E 066°34'513.1
2018-May-13 12:28N 19°57' E 066°37'813.2
2018-May-13 11:53N 19°51' E 066°42'613.2
2018-May-13 11:28N 19°47' E 066°45'1313.2
2018-May-13 10:29N 19°36' E 066°53'2813.5
2018-May-13 08:23N 19°13' E 067°11'513.3
2018-May-13 07:58N 19°09' E 067°14'713.5
2018-May-13 07:25N 19°03' E 067°18'613.6
2018-May-13 07:00N 18°58' E 067°22'20813.1
2018-May-12 15:08N 16°07' E 069°28'313.1
2018-May-12 14:56N 16°05' E 069°29'713.2
2018-May-12 14:26N 15°60' E 069°33'  
Track history (hours):
 
Tides and Currents Weather Stations Pressure Air Temp Water Temp Dewpoint Dewpoint Depression Visibility Wind Speed Wind Dir Waves Ship Positions

Ocean Yatzy

Last reported at 2018-May-13 22:39 UTC. Time now 2018-May-24 11:31 UTC.
Position N 21°42' E 065°19'.
Warning: this ship's position is 10 days out of date.

Length 80 m; draft 21.5 m.

Type: Ship. MMSI: 538001932.

Date/timePositionNaut miles runAvg speedWind from/ knotsBaromVisibWave heightAir tempDewpointWater temp
2018-May-13 22:39N 21°42' E 065°19'3412.7
2018-May-13 19:59N 21°14' E 065°40'4812.4
2018-May-13 16:07N 20°35' E 066°09'512.3
2018-May-13 15:42N 20°31' E 066°13'312.2
2018-May-13 15:26N 20°29' E 066°15'612.3
2018-May-13 14:59N 20°24' E 066°19'612.3
2018-May-13 14:30N 20°19' E 066°22'612.4
2018-May-13 14:00N 20°14' E 066°26'1512.8
2018-May-13 12:50N 20°01' E 066°34'513.1
2018-May-13 12:28N 19°57' E 066°37'813.2
2018-May-13 11:53N 19°51' E 066°42'613.2
2018-May-13 11:28N 19°47' E 066°45'1313.2
2018-May-13 10:29N 19°36' E 066°53'2813.5
2018-May-13 08:23N 19°13' E 067°11'513.3
2018-May-13 07:58N 19°09' E 067°14'713.5
2018-May-13 07:25N 19°03' E 067°18'613.6
2018-May-13 07:00N 18°58' E 067°22'20813.1
2018-May-12 15:08N 16°07' E 069°28'313.1
2018-May-12 14:56N 16°05' E 069°29'713.2
2018-May-12 14:26N 15°60' E 069°33'  

Dump ship's entire track history